sensor_id;sensor_type;location;lat;lon;timestamp;P1;durP1;ratioP1;P2;durP2;ratioP2
10667;SDS011;5382;42.136;24.796;2022-08-19T00:01:16;8.95;;;6.53;;
10667;SDS011;5382;42.136;24.796;2022-08-19T00:03:45;7.72;;;6.95;;
10667;SDS011;5382;42.136;24.796;2022-08-19T00:06:12;8.02;;;7.10;;
10667;SDS011;5382;42.136;24.796;2022-08-19T00:08:39;9.02;;;7.07;;
10667;SDS011;5382;42.136;24.796;2022-08-19T00:11:08;8.18;;;6.75;;
10667;SDS011;5382;42.136;24.796;2022-08-19T00:13:35;9.90;;;6.38;;
10667;SDS011;5382;42.136;24.796;2022-08-19T00:16:03;10.52;;;6.95;;
10667;SDS011;5382;42.136;24.796;2022-08-19T00:18:31;12.00;;;7.05;;
10667;SDS011;5382;42.136;24.796;2022-08-19T00:20:59;17.25;;;8.65;;
10667;SDS011;5382;42.136;24.796;2022-08-19T00:23:26;8.73;;;7.38;;
10667;SDS011;5382;42.136;24.796;2022-08-19T00:25:53;7.82;;;7.00;;
10667;SDS011;5382;42.136;24.796;2022-08-19T00:28:20;9.05;;;7.63;;
10667;SDS011;5382;42.136;24.796;2022-08-19T00:30:47;9.00;;;7.20;;
10667;SDS011;5382;42.136;24.796;2022-08-19T00:33:14;9.27;;;7.95;;
10667;SDS011;5382;42.136;24.796;2022-08-19T00:35:41;7.63;;;6.72;;
10667;SDS011;5382;42.136;24.796;2022-08-19T00:38:10;7.68;;;6.97;;
10667;SDS011;5382;42.136;24.796;2022-08-19T00:40:36;8.18;;;7.32;;
10667;SDS011;5382;42.136;24.796;2022-08-19T00:43:07;11.27;;;7.47;;
10667;SDS011;5382;42.136;24.796;2022-08-19T00:45:35;9.23;;;6.97;;
10667;SDS011;5382;42.136;24.796;2022-08-19T00:48:02;8.18;;;7.40;;
10667;SDS011;5382;42.136;24.796;2022-08-19T00:50:30;8.32;;;7.45;;
10667;SDS011;5382;42.136;24.796;2022-08-19T00:52:57;8.50;;;7.57;;
10667;SDS011;5382;42.136;24.796;2022-08-19T00:55:26;8.02;;;7.25;;
10667;SDS011;5382;42.136;24.796;2022-08-19T00:57:55;10.55;;;7.93;;
10667;SDS011;5382;42.136;24.796;2022-08-19T01:00:25;8.25;;;7.53;;
10667;SDS011;5382;42.136;24.796;2022-08-19T01:02:53;10.15;;;8.02;;
10667;SDS011;5382;42.136;24.796;2022-08-19T01:05:22;10.88;;;8.13;;
10667;SDS011;5382;42.136;24.796;2022-08-19T01:07:52;9.73;;;8.75;;
10667;SDS011;5382;42.136;24.796;2022-08-19T01:10:21;9.18;;;8.15;;
10667;SDS011;5382;42.136;24.796;2022-08-19T01:12:53;8.68;;;7.88;;
10667;SDS011;5382;42.136;24.796;2022-08-19T01:15:23;8.23;;;7.40;;
10667;SDS011;5382;42.136;24.796;2022-08-19T01:17:55;8.77;;;7.75;;
10667;SDS011;5382;42.136;24.796;2022-08-19T01:20:27;9.05;;;8.15;;
10667;SDS011;5382;42.136;24.796;2022-08-19T01:22:56;9.32;;;7.55;;
10667;SDS011;5382;42.136;24.796;2022-08-19T01:25:27;13.07;;;7.53;;
10667;SDS011;5382;42.136;24.796;2022-08-19T01:27:56;10.05;;;7.78;;
10667;SDS011;5382;42.136;24.796;2022-08-19T01:30:24;8.52;;;7.60;;
10667;SDS011;5382;42.136;24.796;2022-08-19T01:32:54;8.63;;;7.50;;
10667;SDS011;5382;42.136;24.796;2022-08-19T01:35:21;9.00;;;7.38;;
10667;SDS011;5382;42.136;24.796;2022-08-19T01:37:53;7.47;;;6.57;;
10667;SDS011;5382;42.136;24.796;2022-08-19T01:40:25;8.45;;;7.50;;
10667;SDS011;5382;42.136;24.796;2022-08-19T01:42:55;7.90;;;7.10;;
10667;SDS011;5382;42.136;24.796;2022-08-19T01:45:23;10.05;;;8.30;;
10667;SDS011;5382;42.136;24.796;2022-08-19T01:47:52;10.25;;;8.02;;
10667;SDS011;5382;42.136;24.796;2022-08-19T01:50:19;9.05;;;7.88;;
10667;SDS011;5382;42.136;24.796;2022-08-19T01:52:46;8.82;;;7.95;;
10667;SDS011;5382;42.136;24.796;2022-08-19T01:55:16;10.52;;;8.18;;
10667;SDS011;5382;42.136;24.796;2022-08-19T01:57:46;11.32;;;7.85;;
10667;SDS011;5382;42.136;24.796;2022-08-19T02:00:18;12.43;;;9.25;;
10667;SDS011;5382;42.136;24.796;2022-08-19T02:02:46;11.35;;;7.50;;
10667;SDS011;5382;42.136;24.796;2022-08-19T02:05:14;9.82;;;8.20;;
10667;SDS011;5382;42.136;24.796;2022-08-19T02:07:46;11.40;;;8.23;;
10667;SDS011;5382;42.136;24.796;2022-08-19T02:10:16;8.90;;;8.00;;
10667;SDS011;5382;42.136;24.796;2022-08-19T02:12:46;10.68;;;8.20;;
10667;SDS011;5382;42.136;24.796;2022-08-19T02:15:14;8.60;;;7.70;;
10667;SDS011;5382;42.136;24.796;2022-08-19T02:17:42;8.48;;;7.57;;
10667;SDS011;5382;42.136;24.796;2022-08-19T02:20:10;9.77;;;8.13;;
10667;SDS011;5382;42.136;24.796;2022-08-19T02:22:38;13.05;;;8.65;;
10667;SDS011;5382;42.136;24.796;2022-08-19T02:25:06;8.88;;;7.97;;
10667;SDS011;5382;42.136;24.796;2022-08-19T02:27:35;8.05;;;5.65;;
10667;SDS011;5382;42.136;24.796;2022-08-19T02:30:02;11.30;;;6.78;;
10667;SDS011;5382;42.136;24.796;2022-08-19T02:32:31;7.32;;;6.63;;
10667;SDS011;5382;42.136;24.796;2022-08-19T02:34:58;13.50;;;6.38;;
10667;SDS011;5382;42.136;24.796;2022-08-19T02:37:25;7.63;;;6.50;;
10667;SDS011;5382;42.136;24.796;2022-08-19T02:40:09;9.43;;;6.25;;
10667;SDS011;5382;42.136;24.796;2022-08-19T02:42:38;7.05;;;6.32;;
10667;SDS011;5382;42.136;24.796;2022-08-19T02:45:06;7.85;;;6.18;;
10667;SDS011;5382;42.136;24.796;2022-08-19T02:47:33;6.10;;;5.50;;
10667;SDS011;5382;42.136;24.796;2022-08-19T02:50:00;8.15;;;5.85;;
10667;SDS011;5382;42.136;24.796;2022-08-19T02:52:29;6.28;;;5.65;;
10667;SDS011;5382;42.136;24.796;2022-08-19T02:54:57;10.45;;;6.65;;
10667;SDS011;5382;42.136;24.796;2022-08-19T02:57:25;11.88;;;5.78;;
10667;SDS011;5382;42.136;24.796;2022-08-19T02:59:56;10.77;;;6.13;;
10667;SDS011;5382;42.136;24.796;2022-08-19T03:02:23;9.10;;;5.88;;
10667;SDS011;5382;42.136;24.796;2022-08-19T03:04:51;6.45;;;5.32;;
10667;SDS011;5382;42.136;24.796;2022-08-19T03:07:18;6.68;;;5.72;;
10667;SDS011;5382;42.136;24.796;2022-08-19T03:09:45;8.13;;;5.65;;
10667;SDS011;5382;42.136;24.796;2022-08-19T03:12:12;7.20;;;5.85;;
10667;SDS011;5382;42.136;24.796;2022-08-19T03:14:39;7.70;;;6.00;;
10667;SDS011;5382;42.136;24.796;2022-08-19T03:17:07;9.48;;;6.90;;
10667;SDS011;5382;42.136;24.796;2022-08-19T03:19:35;8.23;;;6.45;;
10667;SDS011;5382;42.136;24.796;2022-08-19T03:22:03;10.30;;;6.25;;
10667;SDS011;5382;42.136;24.796;2022-08-19T03:24:31;9.30;;;6.88;;
10667;SDS011;5382;42.136;24.796;2022-08-19T03:26:58;7.97;;;6.93;;
10667;SDS011;5382;42.136;24.796;2022-08-19T03:29:25;9.95;;;7.15;;
10667;SDS011;5382;42.136;24.796;2022-08-19T03:31:53;7.28;;;6.55;;
10667;SDS011;5382;42.136;24.796;2022-08-19T03:34:22;6.53;;;5.82;;
10667;SDS011;5382;42.136;24.796;2022-08-19T03:36:51;9.18;;;6.78;;
10667;SDS011;5382;42.136;24.796;2022-08-19T03:39:19;9.65;;;6.38;;
10667;SDS011;5382;42.136;24.796;2022-08-19T03:41:47;10.00;;;6.63;;
10667;SDS011;5382;42.136;24.796;2022-08-19T03:44:17;10.18;;;6.88;;
10667;SDS011;5382;42.136;24.796;2022-08-19T03:46:46;7.70;;;6.60;;
10667;SDS011;5382;42.136;24.796;2022-08-19T03:49:15;7.88;;;6.80;;
10667;SDS011;5382;42.136;24.796;2022-08-19T03:51:43;9.52;;;6.57;;
10667;SDS011;5382;42.136;24.796;2022-08-19T03:54:12;7.68;;;6.88;;
10667;SDS011;5382;42.136;24.796;2022-08-19T03:56:41;11.40;;;6.97;;
10667;SDS011;5382;42.136;24.796;2022-08-19T03:59:10;10.65;;;6.60;;
10667;SDS011;5382;42.136;24.796;2022-08-19T04:01:39;9.20;;;6.97;;
10667;SDS011;5382;42.136;24.796;2022-08-19T04:04:06;9.63;;;7.22;;
10667;SDS011;5382;42.136;24.796;2022-08-19T04:06:34;7.85;;;6.10;;
10667;SDS011;5382;42.136;24.796;2022-08-19T04:09:06;8.85;;;6.75;;
10667;SDS011;5382;42.136;24.796;2022-08-19T04:11:36;16.60;;;6.90;;
10667;SDS011;5382;42.136;24.796;2022-08-19T04:14:07;13.77;;;7.30;;
10667;SDS011;5382;42.136;24.796;2022-08-19T04:16:34;8.88;;;7.38;;
10667;SDS011;5382;42.136;24.796;2022-08-19T04:19:02;10.00;;;7.65;;
10667;SDS011;5382;42.136;24.796;2022-08-19T04:21:30;10.52;;;7.85;;
10667;SDS011;5382;42.136;24.796;2022-08-19T04:23:57;10.68;;;7.68;;
10667;SDS011;5382;42.136;24.796;2022-08-19T04:26:26;13.52;;;7.15;;
10667;SDS011;5382;42.136;24.796;2022-08-19T04:28:57;11.77;;;7.00;;
10667;SDS011;5382;42.136;24.796;2022-08-19T04:31:25;17.38;;;7.22;;
10667;SDS011;5382;42.136;24.796;2022-08-19T04:33:54;8.80;;;7.43;;
10667;SDS011;5382;42.136;24.796;2022-08-19T04:36:23;15.77;;;8.25;;
10667;SDS011;5382;42.136;24.796;2022-08-19T04:38:52;18.48;;;10.95;;
10667;SDS011;5382;42.136;24.796;2022-08-19T04:41:21;14.27;;;9.48;;
10667;SDS011;5382;42.136;24.796;2022-08-19T04:44:07;10.05;;;7.78;;
10667;SDS011;5382;42.136;24.796;2022-08-19T04:46:34;14.80;;;7.47;;
10667;SDS011;5382;42.136;24.796;2022-08-19T04:49:02;11.85;;;8.20;;
10667;SDS011;5382;42.136;24.796;2022-08-19T04:51:31;15.00;;;8.00;;
10667;SDS011;5382;42.136;24.796;2022-08-19T04:53:58;13.20;;;8.45;;
10667;SDS011;5382;42.136;24.796;2022-08-19T04:56:27;17.05;;;8.65;;
10667;SDS011;5382;42.136;24.796;2022-08-19T04:58:54;10.07;;;7.85;;
10667;SDS011;5382;42.136;24.796;2022-08-19T05:01:24;12.43;;;8.35;;
10667;SDS011;5382;42.136;24.796;2022-08-19T05:03:55;12.50;;;7.63;;
10667;SDS011;5382;42.136;24.796;2022-08-19T05:06:22;18.13;;;9.02;;
10667;SDS011;5382;42.136;24.796;2022-08-19T05:08:50;20.23;;;9.63;;
10667;SDS011;5382;42.136;24.796;2022-08-19T05:11:18;17.45;;;8.75;;
10667;SDS011;5382;42.136;24.796;2022-08-19T05:13:46;14.32;;;9.48;;
10667;SDS011;5382;42.136;24.796;2022-08-19T05:16:17;14.27;;;9.15;;
10667;SDS011;5382;42.136;24.796;2022-08-19T05:18:47;18.92;;;9.80;;
10667;SDS011;5382;42.136;24.796;2022-08-19T05:21:31;17.00;;;8.90;;
10667;SDS011;5382;42.136;24.796;2022-08-19T05:24:16;18.80;;;9.70;;
10667;SDS011;5382;42.136;24.796;2022-08-19T05:26:44;17.35;;;9.63;;
10667;SDS011;5382;42.136;24.796;2022-08-19T05:29:13;15.07;;;9.40;;
10667;SDS011;5382;42.136;24.796;2022-08-19T05:31:44;13.15;;;8.68;;
10667;SDS011;5382;42.136;24.796;2022-08-19T05:34:13;17.75;;;8.93;;
10667;SDS011;5382;42.136;24.796;2022-08-19T05:36:42;11.65;;;7.30;;
10667;SDS011;5382;42.136;24.796;2022-08-19T05:39:11;13.75;;;8.20;;
10667;SDS011;5382;42.136;24.796;2022-08-19T05:41:41;12.00;;;7.00;;
10667;SDS011;5382;42.136;24.796;2022-08-19T05:44:08;10.18;;;6.60;;
10667;SDS011;5382;42.136;24.796;2022-08-19T05:46:35;10.43;;;6.55;;
10667;SDS011;5382;42.136;24.796;2022-08-19T05:49:04;11.10;;;6.00;;
10667;SDS011;5382;42.136;24.796;2022-08-19T05:51:34;9.77;;;6.25;;
10667;SDS011;5382;42.136;24.796;2022-08-19T05:54:02;9.18;;;6.13;;
10667;SDS011;5382;42.136;24.796;2022-08-19T05:56:30;8.77;;;5.75;;
10667;SDS011;5382;42.136;24.796;2022-08-19T05:58:59;5.95;;;5.35;;
10667;SDS011;5382;42.136;24.796;2022-08-19T06:01:26;6.65;;;5.30;;
10667;SDS011;5382;42.136;24.796;2022-08-19T06:03:53;6.43;;;5.18;;
10667;SDS011;5382;42.136;24.796;2022-08-19T06:06:20;5.90;;;5.28;;
10667;SDS011;5382;42.136;24.796;2022-08-19T06:08:48;6.10;;;5.50;;
10667;SDS011;5382;42.136;24.796;2022-08-19T06:11:16;7.20;;;5.60;;
10667;SDS011;5382;42.136;24.796;2022-08-19T06:13:46;11.98;;;6.38;;
10667;SDS011;5382;42.136;24.796;2022-08-19T06:16:15;8.93;;;6.10;;
10667;SDS011;5382;42.136;24.796;2022-08-19T06:18:47;7.22;;;5.85;;
10667;SDS011;5382;42.136;24.796;2022-08-19T06:21:16;6.72;;;6.13;;
10667;SDS011;5382;42.136;24.796;2022-08-19T06:23:45;7.32;;;6.05;;
10667;SDS011;5382;42.136;24.796;2022-08-19T06:26:14;8.25;;;5.38;;
10667;SDS011;5382;42.136;24.796;2022-08-19T06:28:42;9.38;;;5.45;;
10667;SDS011;5382;42.136;24.796;2022-08-19T06:31:12;9.23;;;5.97;;
10667;SDS011;5382;42.136;24.796;2022-08-19T06:33:41;7.68;;;5.90;;
10667;SDS011;5382;42.136;24.796;2022-08-19T06:36:15;7.53;;;6.07;;
10667;SDS011;5382;42.136;24.796;2022-08-19T06:38:42;7.03;;;5.57;;
10667;SDS011;5382;42.136;24.796;2022-08-19T06:41:09;9.10;;;5.95;;
10667;SDS011;5382;42.136;24.796;2022-08-19T06:43:38;8.23;;;5.95;;
10667;SDS011;5382;42.136;24.796;2022-08-19T06:46:09;6.82;;;5.78;;
10667;SDS011;5382;42.136;24.796;2022-08-19T06:48:37;8.70;;;6.10;;
10667;SDS011;5382;42.136;24.796;2022-08-19T06:51:05;7.88;;;5.65;;
10667;SDS011;5382;42.136;24.796;2022-08-19T06:53:32;7.97;;;6.22;;
10667;SDS011;5382;42.136;24.796;2022-08-19T06:55:59;7.65;;;5.95;;
10667;SDS011;5382;42.136;24.796;2022-08-19T06:58:27;8.50;;;5.70;;
10667;SDS011;5382;42.136;24.796;2022-08-19T07:00:59;7.05;;;5.95;;
10667;SDS011;5382;42.136;24.796;2022-08-19T07:03:28;7.47;;;5.43;;
10667;SDS011;5382;42.136;24.796;2022-08-19T07:05:57;6.85;;;5.25;;
10667;SDS011;5382;42.136;24.796;2022-08-19T07:08:24;6.22;;;5.32;;
10667;SDS011;5382;42.136;24.796;2022-08-19T07:10:52;8.27;;;5.50;;
10667;SDS011;5382;42.136;24.796;2022-08-19T07:13:19;7.78;;;5.35;;
10667;SDS011;5382;42.136;24.796;2022-08-19T07:15:48;6.40;;;5.05;;
10667;SDS011;5382;42.136;24.796;2022-08-19T07:18:17;7.15;;;5.65;;
10667;SDS011;5382;42.136;24.796;2022-08-19T07:20:45;7.93;;;5.18;;
10667;SDS011;5382;42.136;24.796;2022-08-19T07:23:12;7.45;;;5.70;;
10667;SDS011;5382;42.136;24.796;2022-08-19T07:25:39;8.18;;;5.65;;
10667;SDS011;5382;42.136;24.796;2022-08-19T07:28:06;5.47;;;4.95;;
10667;SDS011;5382;42.136;24.796;2022-08-19T07:30:36;5.68;;;4.72;;
10667;SDS011;5382;42.136;24.796;2022-08-19T07:33:03;5.68;;;5.15;;
10667;SDS011;5382;42.136;24.796;2022-08-19T07:35:32;6.00;;;4.97;;
10667;SDS011;5382;42.136;24.796;2022-08-19T07:37:59;6.35;;;5.00;;
10667;SDS011;5382;42.136;24.796;2022-08-19T07:40:29;8.05;;;5.45;;
10667;SDS011;5382;42.136;24.796;2022-08-19T07:42:56;6.60;;;5.05;;
10667;SDS011;5382;42.136;24.796;2022-08-19T07:45:23;6.22;;;4.90;;
10667;SDS011;5382;42.136;24.796;2022-08-19T07:47:50;4.70;;;4.22;;
10667;SDS011;5382;42.136;24.796;2022-08-19T07:50:18;5.57;;;4.80;;
10667;SDS011;5382;42.136;24.796;2022-08-19T07:52:48;6.38;;;5.60;;
10667;SDS011;5382;42.136;24.796;2022-08-19T07:55:16;9.57;;;4.90;;
10667;SDS011;5382;42.136;24.796;2022-08-19T07:57:45;5.20;;;4.70;;
10667;SDS011;5382;42.136;24.796;2022-08-19T08:00:13;10.68;;;4.60;;
10667;SDS011;5382;42.136;24.796;2022-08-19T08:02:40;5.90;;;4.63;;
10667;SDS011;5382;42.136;24.796;2022-08-19T08:05:08;6.68;;;5.00;;
10667;SDS011;5382;42.136;24.796;2022-08-19T08:07:54;7.68;;;4.75;;
10667;SDS011;5382;42.136;24.796;2022-08-19T08:10:39;9.15;;;4.28;;
10667;SDS011;5382;42.136;24.796;2022-08-19T08:13:06;7.60;;;4.68;;
10667;SDS011;5382;42.136;24.796;2022-08-19T08:15:34;7.57;;;4.53;;
10667;SDS011;5382;42.136;24.796;2022-08-19T08:18:04;7.63;;;4.32;;
10667;SDS011;5382;42.136;24.796;2022-08-19T08:20:32;4.68;;;4.28;;
10667;SDS011;5382;42.136;24.796;2022-08-19T08:23:00;4.93;;;4.05;;
10667;SDS011;5382;42.136;24.796;2022-08-19T08:25:44;6.18;;;4.45;;
10667;SDS011;5382;42.136;24.796;2022-08-19T08:28:11;6.10;;;4.60;;
10667;SDS011;5382;42.136;24.796;2022-08-19T08:30:38;5.47;;;4.68;;
10667;SDS011;5382;42.136;24.796;2022-08-19T08:33:07;6.63;;;4.80;;
10667;SDS011;5382;42.136;24.796;2022-08-19T08:35:34;4.38;;;3.92;;
10667;SDS011;5382;42.136;24.796;2022-08-19T08:38:02;5.82;;;4.68;;
10667;SDS011;5382;42.136;24.796;2022-08-19T08:40:31;4.88;;;4.47;;
10667;SDS011;5382;42.136;24.796;2022-08-19T08:43:06;5.32;;;4.28;;
10667;SDS011;5382;42.136;24.796;2022-08-19T08:45:50;5.60;;;4.50;;
10667;SDS011;5382;42.136;24.796;2022-08-19T08:48:24;8.98;;;4.65;;
10667;SDS011;5382;42.136;24.796;2022-08-19T08:50:58;8.55;;;4.80;;
10667;SDS011;5382;42.136;24.796;2022-08-19T08:53:31;6.75;;;4.00;;
10667;SDS011;5382;42.136;24.796;2022-08-19T08:56:01;4.43;;;4.10;;
10667;SDS011;5382;42.136;24.796;2022-08-19T08:58:32;7.78;;;4.38;;
10667;SDS011;5382;42.136;24.796;2022-08-19T09:01:08;4.75;;;4.32;;
10667;SDS011;5382;42.136;24.796;2022-08-19T09:03:36;5.30;;;4.35;;
10667;SDS011;5382;42.136;24.796;2022-08-19T09:06:07;5.88;;;4.15;;
10667;SDS011;5382;42.136;24.796;2022-08-19T09:08:45;7.13;;;4.90;;
10667;SDS011;5382;42.136;24.796;2022-08-19T09:11:19;4.80;;;4.30;;
10667;SDS011;5382;42.136;24.796;2022-08-19T09:13:54;5.57;;;4.53;;
10667;SDS011;5382;42.136;24.796;2022-08-19T09:16:33;4.60;;;4.20;;
10667;SDS011;5382;42.136;24.796;2022-08-19T09:19:02;5.80;;;4.55;;
10667;SDS011;5382;42.136;24.796;2022-08-19T09:21:32;5.43;;;4.78;;
10667;SDS011;5382;42.136;24.796;2022-08-19T09:24:01;4.40;;;4.05;;
10667;SDS011;5382;42.136;24.796;2022-08-19T09:26:29;6.47;;;4.43;;
10667;SDS011;5382;42.136;24.796;2022-08-19T09:28:58;5.03;;;4.55;;
10667;SDS011;5382;42.136;24.796;2022-08-19T09:31:27;6.00;;;4.28;;
10667;SDS011;5382;42.136;24.796;2022-08-19T09:33:55;4.82;;;4.43;;
10667;SDS011;5382;42.136;24.796;2022-08-19T09:36:23;5.53;;;4.47;;
10667;SDS011;5382;42.136;24.796;2022-08-19T09:38:51;5.38;;;4.50;;
10667;SDS011;5382;42.136;24.796;2022-08-19T09:41:23;6.80;;;4.53;;
10667;SDS011;5382;42.136;24.796;2022-08-19T09:43:51;4.97;;;4.13;;
10667;SDS011;5382;42.136;24.796;2022-08-19T09:46:20;4.95;;;4.45;;
10667;SDS011;5382;42.136;24.796;2022-08-19T09:48:48;6.97;;;4.32;;
10667;SDS011;5382;42.136;24.796;2022-08-19T09:51:18;7.78;;;4.45;;
10667;SDS011;5382;42.136;24.796;2022-08-19T09:53:47;4.85;;;4.45;;
10667;SDS011;5382;42.136;24.796;2022-08-19T09:56:15;5.07;;;4.38;;
10667;SDS011;5382;42.136;24.796;2022-08-19T09:58:48;5.05;;;4.50;;
10667;SDS011;5382;42.136;24.796;2022-08-19T10:01:15;4.78;;;4.38;;
10667;SDS011;5382;42.136;24.796;2022-08-19T10:03:46;4.65;;;4.25;;
10667;SDS011;5382;42.136;24.796;2022-08-19T10:06:14;5.45;;;4.28;;
10667;SDS011;5382;42.136;24.796;2022-08-19T10:08:43;5.88;;;4.32;;
10667;SDS011;5382;42.136;24.796;2022-08-19T10:11:13;4.93;;;4.47;;
10667;SDS011;5382;42.136;24.796;2022-08-19T10:13:42;4.97;;;4.22;;
10667;SDS011;5382;42.136;24.796;2022-08-19T10:16:13;5.00;;;4.60;;
10667;SDS011;5382;42.136;24.796;2022-08-19T10:18:42;8.75;;;5.15;;
10667;SDS011;5382;42.136;24.796;2022-08-19T10:21:10;4.72;;;4.20;;
10667;SDS011;5382;42.136;24.796;2022-08-19T10:23:39;5.28;;;4.43;;
10667;SDS011;5382;42.136;24.796;2022-08-19T10:26:10;5.72;;;4.30;;
10667;SDS011;5382;42.136;24.796;2022-08-19T10:28:38;5.35;;;4.47;;
10667;SDS011;5382;42.136;24.796;2022-08-19T10:31:06;6.85;;;4.28;;
10667;SDS011;5382;42.136;24.796;2022-08-19T10:33:36;5.72;;;3.90;;
10667;SDS011;5382;42.136;24.796;2022-08-19T10:36:05;4.85;;;4.35;;
10667;SDS011;5382;42.136;24.796;2022-08-19T10:38:34;6.50;;;4.60;;
10667;SDS011;5382;42.136;24.796;2022-08-19T10:41:06;5.10;;;4.25;;
10667;SDS011;5382;42.136;24.796;2022-08-19T10:43:34;6.80;;;4.63;;
10667;SDS011;5382;42.136;24.796;2022-08-19T10:46:03;4.60;;;4.05;;
10667;SDS011;5382;42.136;24.796;2022-08-19T10:48:31;5.78;;;4.00;;
10667;SDS011;5382;42.136;24.796;2022-08-19T10:51:00;5.88;;;4.65;;
10667;SDS011;5382;42.136;24.796;2022-08-19T10:53:46;4.13;;;3.80;;
10667;SDS011;5382;42.136;24.796;2022-08-19T10:56:14;5.88;;;4.00;;
10667;SDS011;5382;42.136;24.796;2022-08-19T10:59:00;4.65;;;3.72;;
10667;SDS011;5382;42.136;24.796;2022-08-19T11:01:28;3.80;;;3.50;;
10667;SDS011;5382;42.136;24.796;2022-08-19T11:03:58;4.38;;;3.70;;
10667;SDS011;5382;42.136;24.796;2022-08-19T11:06:27;3.90;;;3.47;;
10667;SDS011;5382;42.136;24.796;2022-08-19T11:08:55;5.43;;;3.67;;
10667;SDS011;5382;42.136;24.796;2022-08-19T11:11:22;3.92;;;3.58;;
10667;SDS011;5382;42.136;24.796;2022-08-19T11:13:49;7.43;;;3.92;;
10667;SDS011;5382;42.136;24.796;2022-08-19T11:16:17;4.05;;;3.65;;
10667;SDS011;5382;42.136;24.796;2022-08-19T11:18:47;4.55;;;4.05;;
10667;SDS011;5382;42.136;24.796;2022-08-19T11:21:17;4.40;;;3.92;;
10667;SDS011;5382;42.136;24.796;2022-08-19T11:23:48;5.72;;;3.35;;
10667;SDS011;5382;42.136;24.796;2022-08-19T11:26:16;5.85;;;4.15;;
10667;SDS011;5382;42.136;24.796;2022-08-19T11:28:45;5.13;;;3.33;;
10667;SDS011;5382;42.136;24.796;2022-08-19T11:31:12;4.10;;;3.60;;
10667;SDS011;5382;42.136;24.796;2022-08-19T11:33:40;6.57;;;4.10;;
10667;SDS011;5382;42.136;24.796;2022-08-19T11:36:08;4.20;;;3.33;;
10667;SDS011;5382;42.136;24.796;2022-08-19T11:38:39;5.03;;;3.28;;
10667;SDS011;5382;42.136;24.796;2022-08-19T11:41:07;5.05;;;4.10;;
10667;SDS011;5382;42.136;24.796;2022-08-19T11:43:34;4.30;;;3.90;;
10667;SDS011;5382;42.136;24.796;2022-08-19T11:46:03;4.28;;;3.83;;
10667;SDS011;5382;42.136;24.796;2022-08-19T11:48:33;6.00;;;3.88;;
10667;SDS011;5382;42.136;24.796;2022-08-19T11:51:03;4.35;;;3.95;;
10667;SDS011;5382;42.136;24.796;2022-08-19T11:53:31;3.95;;;3.63;;
10667;SDS011;5382;42.136;24.796;2022-08-19T11:55:59;3.90;;;3.60;;
10667;SDS011;5382;42.136;24.796;2022-08-19T11:58:28;5.53;;;3.90;;
10667;SDS011;5382;42.136;24.796;2022-08-19T12:00:55;3.90;;;3.58;;
10667;SDS011;5382;42.136;24.796;2022-08-19T12:03:22;4.10;;;3.70;;
10667;SDS011;5382;42.136;24.796;2022-08-19T12:05:49;4.18;;;3.85;;
10667;SDS011;5382;42.136;24.796;2022-08-19T12:08:16;3.80;;;3.45;;
10667;SDS011;5382;42.136;24.796;2022-08-19T12:10:44;4.18;;;3.50;;
10667;SDS011;5382;42.136;24.796;2022-08-19T12:13:12;6.57;;;3.60;;
10667;SDS011;5382;42.136;24.796;2022-08-19T12:15:45;9.77;;;8.82;;
10667;SDS011;5382;42.136;24.796;2022-08-19T12:18:13;3.95;;;3.63;;
10667;SDS011;5382;42.136;24.796;2022-08-19T12:20:41;6.40;;;4.18;;
10667;SDS011;5382;42.136;24.796;2022-08-19T12:23:11;4.57;;;3.50;;
10667;SDS011;5382;42.136;24.796;2022-08-19T12:25:42;6.63;;;3.70;;
10667;SDS011;5382;42.136;24.796;2022-08-19T12:28:13;4.72;;;3.42;;
10667;SDS011;5382;42.136;24.796;2022-08-19T12:30:40;5.40;;;3.50;;
10667;SDS011;5382;42.136;24.796;2022-08-19T12:33:08;4.97;;;4.03;;
10667;SDS011;5382;42.136;24.796;2022-08-19T12:35:38;4.95;;;3.40;;
10667;SDS011;5382;42.136;24.796;2022-08-19T12:38:06;5.72;;;3.70;;
10667;SDS011;5382;42.136;24.796;2022-08-19T12:40:33;4.03;;;3.72;;
10667;SDS011;5382;42.136;24.796;2022-08-19T12:43:02;6.35;;;3.47;;
10667;SDS011;5382;42.136;24.796;2022-08-19T12:45:31;4.20;;;3.85;;
10667;SDS011;5382;42.136;24.796;2022-08-19T12:47:59;4.78;;;3.85;;
10667;SDS011;5382;42.136;24.796;2022-08-19T12:50:28;4.57;;;3.55;;
10667;SDS011;5382;42.136;24.796;2022-08-19T12:52:55;3.88;;;3.55;;
10667;SDS011;5382;42.136;24.796;2022-08-19T12:55:23;4.05;;;3.65;;
10667;SDS011;5382;42.136;24.796;2022-08-19T12:57:50;7.63;;;3.47;;
10667;SDS011;5382;42.136;24.796;2022-08-19T13:00:18;5.43;;;3.60;;
10667;SDS011;5382;42.136;24.796;2022-08-19T13:02:47;4.85;;;3.95;;
10667;SDS011;5382;42.136;24.796;2022-08-19T13:05:18;4.20;;;3.90;;
10667;SDS011;5382;42.136;24.796;2022-08-19T13:07:50;5.70;;;3.83;;
10667;SDS011;5382;42.136;24.796;2022-08-19T13:10:21;4.78;;;3.42;;
10667;SDS011;5382;42.136;24.796;2022-08-19T13:12:49;3.92;;;3.50;;
10667;SDS011;5382;42.136;24.796;2022-08-19T13:15:18;4.38;;;3.40;;
10667;SDS011;5382;42.136;24.796;2022-08-19T13:17:47;3.92;;;3.50;;
10667;SDS011;5382;42.136;24.796;2022-08-19T13:20:16;3.92;;;3.53;;
10667;SDS011;5382;42.136;24.796;2022-08-19T13:22:45;4.13;;;3.70;;
10667;SDS011;5382;42.136;24.796;2022-08-19T13:25:14;5.90;;;3.60;;
10667;SDS011;5382;42.136;24.796;2022-08-19T13:27:44;7.43;;;3.58;;
10667;SDS011;5382;42.136;24.796;2022-08-19T13:30:13;5.65;;;3.78;;
10667;SDS011;5382;42.136;24.796;2022-08-19T13:32:58;5.63;;;4.05;;
10667;SDS011;5382;42.136;24.796;2022-08-19T13:35:40;4.07;;;3.78;;
10667;SDS011;5382;42.136;24.796;2022-08-19T13:38:08;4.53;;;4.10;;
10667;SDS011;5382;42.136;24.796;2022-08-19T13:40:37;4.25;;;3.63;;
10667;SDS011;5382;42.136;24.796;2022-08-19T13:43:04;4.20;;;3.80;;
10667;SDS011;5382;42.136;24.796;2022-08-19T13:45:32;3.78;;;3.47;;
10667;SDS011;5382;42.136;24.796;2022-08-19T13:48:02;4.03;;;3.20;;
10667;SDS011;5382;42.136;24.796;2022-08-19T13:50:34;3.90;;;3.50;;
10667;SDS011;5382;42.136;24.796;2022-08-19T13:53:04;5.28;;;3.65;;
10667;SDS011;5382;42.136;24.796;2022-08-19T13:55:30;4.18;;;3.53;;
10667;SDS011;5382;42.136;24.796;2022-08-19T13:57:59;3.83;;;3.53;;
10667;SDS011;5382;42.136;24.796;2022-08-19T14:00:28;4.90;;;3.63;;
10667;SDS011;5382;42.136;24.796;2022-08-19T14:02:56;4.85;;;3.72;;
10667;SDS011;5382;42.136;24.796;2022-08-19T14:05:24;4.18;;;3.78;;
10667;SDS011;5382;42.136;24.796;2022-08-19T14:07:53;5.13;;;3.63;;
10667;SDS011;5382;42.136;24.796;2022-08-19T14:10:21;4.55;;;4.15;;
10667;SDS011;5382;42.136;24.796;2022-08-19T14:12:48;6.43;;;3.80;;
10667;SDS011;5382;42.136;24.796;2022-08-19T14:15:19;4.05;;;3.67;;
10667;SDS011;5382;42.136;24.796;2022-08-19T14:17:46;4.20;;;3.80;;
10667;SDS011;5382;42.136;24.796;2022-08-19T14:20:14;3.72;;;3.42;;
10667;SDS011;5382;42.136;24.796;2022-08-19T14:22:41;6.10;;;3.85;;
10667;SDS011;5382;42.136;24.796;2022-08-19T14:25:10;5.93;;;3.90;;
10667;SDS011;5382;42.136;24.796;2022-08-19T14:27:39;4.45;;;4.05;;
10667;SDS011;5382;42.136;24.796;2022-08-19T14:30:08;4.15;;;3.75;;
10667;SDS011;5382;42.136;24.796;2022-08-19T14:32:38;6.90;;;4.28;;
10667;SDS011;5382;42.136;24.796;2022-08-19T14:35:05;4.13;;;3.80;;
10667;SDS011;5382;42.136;24.796;2022-08-19T14:37:33;4.40;;;4.00;;
10667;SDS011;5382;42.136;24.796;2022-08-19T14:40:01;4.10;;;3.70;;
10667;SDS011;5382;42.136;24.796;2022-08-19T14:42:28;18.05;;;5.97;;
10667;SDS011;5382;42.136;24.796;2022-08-19T14:44:57;6.63;;;3.45;;
10667;SDS011;5382;42.136;24.796;2022-08-19T14:47:24;4.28;;;3.50;;
10667;SDS011;5382;42.136;24.796;2022-08-19T14:49:53;6.68;;;3.72;;
10667;SDS011;5382;42.136;24.796;2022-08-19T14:52:20;4.13;;;3.35;;
10667;SDS011;5382;42.136;24.796;2022-08-19T14:54:47;4.03;;;3.72;;
10667;SDS011;5382;42.136;24.796;2022-08-19T14:57:14;4.15;;;3.75;;